createdAt,value
2023-02-22T00:01:51.339Z,28.60
2023-02-22T00:04:21.405Z,33.50
2023-02-22T00:06:50.869Z,29.77
2023-02-22T00:09:21.506Z,28.02
2023-02-22T00:11:50.239Z,33.33
2023-02-22T00:14:20.586Z,31.88
2023-02-22T00:16:51.703Z,30.95
2023-02-22T00:19:20.333Z,31.60
2023-02-22T00:21:53.963Z,29.83
2023-02-22T00:24:24.706Z,30.58
2023-02-22T00:26:55.596Z,33.97
2023-02-22T00:29:24.472Z,31.48
2023-02-22T00:31:54.151Z,31.55
2023-02-22T00:34:24.207Z,31.10
2023-02-22T00:36:55.113Z,30.70
2023-02-22T00:39:23.198Z,33.72
2023-02-22T00:41:51.254Z,35.50
2023-02-22T00:44:19.298Z,31.67
2023-02-22T00:46:47.482Z,32.00
2023-02-22T00:49:17.084Z,30.40
2023-02-22T00:51:45.182Z,29.42
2023-02-22T00:54:14.486Z,30.35
2023-02-22T00:56:42.549Z,30.77
2023-02-22T00:59:10.697Z,32.17
2023-02-22T01:01:38.820Z,29.35
2023-02-22T01:04:06.939Z,34.97
2023-02-22T01:06:36.404Z,32.15
2023-02-22T01:09:05.038Z,27.70
2023-02-22T01:11:33.107Z,32.22
2023-02-22T01:14:01.195Z,33.58
2023-02-22T01:16:29.372Z,34.28
2023-02-22T01:18:57.423Z,34.60
2023-02-22T01:21:25.489Z,35.10
2023-02-22T01:23:55.109Z,34.88
2023-02-22T01:26:23.235Z,32.70
2023-02-22T01:28:51.246Z,31.92
2023-02-22T01:31:19.594Z,33.60
2023-02-22T01:33:48.081Z,33.22
2023-02-22T01:36:16.599Z,32.05
2023-02-22T01:38:45.117Z,33.22
2023-02-22T01:41:18.568Z,31.42
2023-02-22T01:43:46.803Z,36.67
2023-02-22T01:46:23.309Z,34.45
2023-02-22T01:48:55.566Z,35.70
2023-02-22T01:51:26.451Z,33.15
2023-02-22T01:53:58.215Z,33.53
2023-02-22T01:56:30.836Z,31.43
2023-02-22T02:01:29.733Z,38.00
2023-02-22T02:04:00.075Z,33.30
2023-02-22T02:06:32.569Z,33.28
2023-02-22T02:09:06.136Z,33.85
2023-02-22T02:11:35.947Z,34.90
2023-02-22T02:14:04.129Z,36.83
2023-02-22T02:16:40.143Z,36.80
2023-02-22T02:19:16.092Z,36.40
2023-02-22T02:22:10.538Z,36.97
2023-02-22T02:25:18.230Z,36.17
2023-02-22T02:28:07.007Z,37.83
2023-02-22T02:31:03.555Z,38.80
2023-02-22T02:33:35.973Z,37.28
2023-02-22T02:36:13.737Z,39.72
2023-02-22T02:38:46.820Z,38.53
2023-02-22T02:43:54.629Z,37.88
2023-02-22T02:46:29.098Z,42.80
2023-02-22T02:49:01.680Z,39.83
2023-02-22T02:51:33.679Z,42.22
2023-02-22T02:54:04.264Z,45.40
2023-02-22T02:56:32.455Z,45.58
2023-02-22T02:59:00.497Z,45.13
2023-02-22T03:01:45.821Z,46.05
2023-02-22T03:04:25.520Z,43.28
2023-02-22T03:07:13.039Z,43.50
2023-02-22T03:09:58.521Z,43.47
2023-02-22T03:12:39.933Z,47.45
2023-02-22T03:15:21.981Z,44.90
2023-02-22T03:17:56.281Z,46.10
2023-02-22T03:20:32.655Z,47.97
2023-02-22T03:23:06.800Z,47.08
2023-02-22T03:25:41.370Z,47.28
2023-02-22T03:28:13.075Z,46.88
2023-02-22T03:30:46.243Z,49.37
2023-02-22T03:33:20.520Z,44.75
2023-02-22T03:35:56.948Z,44.25
2023-02-22T03:38:29.808Z,43.95
2023-02-22T03:43:35.428Z,46.45
2023-02-22T03:46:04.929Z,41.28
2023-02-22T03:48:39.044Z,43.92
2023-02-22T03:51:08.886Z,46.47
2023-02-22T03:53:38.197Z,42.35
2023-02-22T03:56:10.543Z,40.38
2023-02-22T03:58:44.091Z,42.28
2023-02-22T04:01:13.773Z,39.63
2023-02-22T04:03:42.825Z,40.03
2023-02-22T04:06:12.462Z,44.33
2023-02-22T04:08:40.569Z,39.90
2023-02-22T04:11:08.576Z,45.00
2023-02-22T04:13:36.681Z,44.28
2023-02-22T04:16:04.788Z,41.58
2023-02-22T04:18:32.928Z,43.85
2023-02-22T04:21:04.371Z,47.80
2023-02-22T04:23:33.880Z,51.15
2023-02-22T04:26:01.919Z,44.95
2023-02-22T04:28:30.031Z,47.60
2023-02-22T04:30:58.056Z,50.42
2023-02-22T04:33:26.258Z,46.35
2023-02-22T04:35:54.389Z,44.33
2023-02-22T04:38:22.465Z,47.25
2023-02-22T04:40:51.942Z,49.00
2023-02-22T04:43:23.292Z,55.78
2023-02-22T04:45:51.426Z,48.95
2023-02-22T04:48:19.489Z,47.30
2023-02-22T04:50:47.890Z,51.00
2023-02-22T04:53:15.910Z,54.08
2023-02-22T04:55:43.996Z,53.97
2023-02-22T04:58:13.544Z,57.45
2023-02-22T05:00:41.699Z,63.42
2023-02-22T05:03:09.994Z,59.38
2023-02-22T05:05:37.974Z,63.55
2023-02-22T05:08:06.239Z,63.28
2023-02-22T05:10:34.248Z,66.20
2023-02-22T05:13:04.096Z,60.00
2023-02-22T05:15:33.748Z,67.85
2023-02-22T05:18:01.846Z,65.43
2023-02-22T05:20:32.662Z,68.22
2023-02-22T05:23:02.861Z,71.70
2023-02-22T05:25:31.045Z,66.32
2023-02-22T05:28:00.802Z,75.82
2023-02-22T05:30:31.346Z,72.57
2023-02-22T05:33:00.860Z,66.88
2023-02-22T05:35:30.041Z,73.43
2023-02-22T05:38:03.255Z,79.25
2023-02-22T05:40:32.099Z,79.82
2023-02-22T05:43:00.847Z,75.05
2023-02-22T05:45:29.976Z,69.63
2023-02-22T05:47:58.521Z,70.75
2023-02-22T05:50:28.225Z,70.70
2023-02-22T05:52:56.766Z,67.15
2023-02-22T05:55:25.624Z,63.20
2023-02-22T05:57:54.195Z,64.03
2023-02-22T06:00:24.433Z,79.50
2023-02-22T06:02:56.801Z,70.53
2023-02-22T06:05:25.591Z,74.50
2023-02-22T06:07:55.673Z,78.03
2023-02-22T06:10:24.150Z,104.55
2023-02-22T06:12:52.907Z,73.03
2023-02-22T06:15:22.261Z,75.68
2023-02-22T06:17:50.788Z,79.88
2023-02-22T06:20:22.817Z,82.38
2023-02-22T06:22:51.696Z,70.15
2023-02-22T06:25:24.074Z,102.90
2023-02-22T06:27:52.545Z,69.90
2023-02-22T06:30:23.455Z,59.55
2023-02-22T06:32:51.907Z,63.67
2023-02-22T06:35:20.679Z,75.05
2023-02-22T06:37:48.826Z,77.28
2023-02-22T06:40:17.583Z,75.32
2023-02-22T06:42:49.050Z,73.07
2023-02-22T06:45:18.187Z,61.35
2023-02-22T06:47:46.450Z,94.80
2023-02-22T06:50:22.449Z,65.03
2023-02-22T06:52:50.655Z,69.68
2023-02-22T06:55:20.256Z,74.90
2023-02-22T06:57:49.817Z,76.22
2023-02-22T07:00:19.887Z,75.22
2023-02-22T07:02:49.333Z,70.25
2023-02-22T07:05:19.083Z,80.88
2023-02-22T07:07:47.524Z,83.57
2023-02-22T07:10:20.641Z,76.93
2023-02-22T07:12:52.513Z,72.50
2023-02-22T07:15:22.563Z,68.63
2023-02-22T07:17:50.843Z,63.83
2023-02-22T07:20:20.719Z,76.45
2023-02-22T07:22:49.202Z,67.72
2023-02-22T07:25:17.758Z,76.05
2023-02-22T07:27:46.149Z,72.88
2023-02-22T07:30:19.992Z,67.15
2023-02-22T07:32:48.744Z,71.25
2023-02-22T07:35:18.576Z,72.50
2023-02-22T07:37:48.221Z,68.50
2023-02-22T07:40:18.091Z,67.97
2023-02-22T07:42:57.015Z,66.88
2023-02-22T07:45:28.364Z,67.00
2023-02-22T07:47:56.807Z,62.53
2023-02-22T07:50:26.587Z,70.13
2023-02-22T07:52:56.446Z,65.10
2023-02-22T07:55:27.203Z,70.10
2023-02-22T07:57:57.914Z,65.03
2023-02-22T08:00:29.494Z,63.70
2023-02-22T08:02:58.010Z,61.97
2023-02-22T08:05:28.007Z,72.40
2023-02-22T08:07:59.164Z,62.20
2023-02-22T08:10:28.519Z,64.30
2023-02-22T08:12:57.017Z,68.75
2023-02-22T08:15:29.643Z,60.65
2023-02-22T08:20:26.363Z,61.63
2023-02-22T08:22:55.107Z,58.13
2023-02-22T08:25:28.279Z,64.75
2023-02-22T08:28:01.252Z,60.80
2023-02-22T08:30:32.487Z,62.63
2023-02-22T08:33:02.512Z,59.47
2023-02-22T08:35:31.868Z,65.15
2023-02-22T08:38:06.287Z,65.07
2023-02-22T08:40:36.746Z,60.73
2023-02-22T08:43:06.645Z,60.17
2023-02-22T08:45:36.229Z,68.18
2023-02-22T08:48:04.628Z,66.78
2023-02-22T08:50:34.185Z,57.20
2023-02-22T08:53:03.975Z,66.38
2023-02-22T08:55:34.792Z,65.93
2023-02-22T08:58:04.004Z,59.97
2023-02-22T09:00:33.951Z,60.10
2023-02-22T09:03:04.903Z,63.67
2023-02-22T09:05:33.851Z,61.42
2023-02-22T09:08:02.349Z,66.40
2023-02-22T09:10:32.880Z,56.97
2023-02-22T09:13:02.390Z,66.45
2023-02-22T09:15:31.015Z,65.70
2023-02-22T09:17:59.164Z,64.68
2023-02-22T09:20:29.336Z,68.95
2023-02-22T09:22:58.064Z,62.30
2023-02-22T09:25:27.211Z,60.90
2023-02-22T09:27:58.500Z,62.70
2023-02-22T09:30:32.148Z,60.92
2023-02-22T09:33:02.553Z,62.35
2023-02-22T09:35:36.144Z,58.35
2023-02-22T09:38:07.315Z,61.67
2023-02-22T09:40:44.812Z,55.28
2023-02-22T09:43:35.852Z,51.88
2023-02-22T09:46:19.397Z,56.13
2023-02-22T09:48:59.389Z,52.03
2023-02-22T09:51:35.837Z,47.45
2023-02-22T09:54:07.636Z,54.58
2023-02-22T09:56:36.511Z,55.30
2023-02-22T09:59:08.919Z,49.92
2023-02-22T10:01:43.467Z,53.13
2023-02-22T10:04:18.727Z,52.15
2023-02-22T10:07:06.779Z,50.40
2023-02-22T10:09:39.705Z,48.92
2023-02-22T10:12:12.986Z,47.70
2023-02-22T10:15:25.071Z,45.70
2023-02-22T10:18:00.561Z,43.58
2023-02-22T10:20:43.790Z,48.85
2023-02-22T10:23:22.999Z,44.47
2023-02-22T10:25:57.418Z,44.53
2023-02-22T10:28:31.048Z,43.70
2023-02-22T10:31:03.426Z,41.28
2023-02-22T10:33:34.976Z,46.08
2023-02-22T10:36:03.736Z,46.00
2023-02-22T10:38:34.977Z,43.70
2023-02-22T10:41:17.614Z,49.38
2023-02-22T10:43:46.070Z,49.53
2023-02-22T10:46:18.954Z,46.55
2023-02-22T10:48:51.454Z,46.40
2023-02-22T10:51:19.635Z,47.60
2023-02-22T10:53:59.149Z,48.92
2023-02-22T10:56:29.062Z,47.28
2023-02-22T10:58:59.723Z,44.08
2023-02-22T11:01:36.336Z,45.63
2023-02-22T11:04:13.492Z,41.35
2023-02-22T11:06:44.465Z,44.60
2023-02-22T11:09:17.968Z,38.65
2023-02-22T11:11:47.989Z,37.60
2023-02-22T11:14:28.982Z,39.55
2023-02-22T11:16:58.682Z,40.70
2023-02-22T11:19:29.345Z,36.90
2023-02-22T11:22:00.530Z,38.88
2023-02-22T11:24:43.592Z,35.40
2023-02-22T11:27:26.522Z,34.10
2023-02-22T11:29:54.724Z,33.97
2023-02-22T11:32:25.771Z,34.38
2023-02-22T11:35:08.309Z,35.85
2023-02-22T11:37:38.335Z,34.35
2023-02-22T11:40:18.459Z,33.45
2023-02-22T11:42:47.305Z,35.63
2023-02-22T11:45:21.431Z,32.42
2023-02-22T11:47:53.742Z,39.70
2023-02-22T11:50:29.289Z,33.17
2023-02-22T11:53:11.046Z,35.10
2023-02-22T11:55:51.101Z,30.05
2023-02-22T11:58:36.766Z,33.85
2023-02-22T12:01:17.249Z,30.92
2023-02-22T12:04:10.725Z,30.85
2023-02-22T12:06:51.407Z,33.38
2023-02-22T12:09:28.970Z,30.15
2023-02-22T12:12:09.066Z,29.38
2023-02-22T12:14:45.343Z,28.60
2023-02-22T12:17:26.817Z,29.88
2023-02-22T12:20:01.740Z,30.50
2023-02-22T12:22:34.699Z,29.30
2023-02-22T12:25:14.671Z,29.33
2023-02-22T12:27:49.294Z,31.23
2023-02-22T12:30:23.792Z,30.13
2023-02-22T12:32:55.058Z,27.35
2023-02-22T12:35:27.107Z,29.90
2023-02-22T12:38:04.209Z,29.20
2023-02-22T12:40:38.437Z,29.90
2023-02-22T12:43:17.339Z,27.35
2023-02-22T12:45:50.366Z,27.63
2023-02-22T12:48:32.676Z,26.65
2023-02-22T12:51:08.546Z,29.13
2023-02-22T12:53:40.256Z,29.05
2023-02-22T12:56:21.556Z,27.92
2023-02-22T12:58:56.700Z,25.38
2023-02-22T13:01:30.122Z,30.30
2023-02-22T13:04:00.713Z,27.77
2023-02-22T13:06:41.814Z,27.38
2023-02-22T13:09:37.464Z,28.48
2023-02-22T13:12:10.658Z,26.75
2023-02-22T13:14:59.141Z,27.73
2023-02-22T13:17:34.473Z,24.85
2023-02-22T13:20:08.788Z,24.40
2023-02-22T13:22:44.559Z,23.90
2023-02-22T13:25:16.752Z,25.30
2023-02-22T13:27:49.974Z,26.77
2023-02-22T13:30:25.382Z,28.00
2023-02-22T13:33:17.086Z,24.73
2023-02-22T13:36:10.025Z,26.15
2023-02-22T13:39:17.361Z,26.30
2023-02-22T13:41:56.248Z,24.98
2023-02-22T13:44:38.634Z,24.88
2023-02-22T13:47:26.445Z,23.83
2023-02-22T13:50:11.288Z,25.08
2023-02-22T13:52:41.773Z,24.08
2023-02-22T13:55:19.138Z,23.83
2023-02-22T13:57:50.926Z,27.17
2023-02-22T14:00:25.854Z,25.13
2023-02-22T14:03:06.852Z,25.63
2023-02-22T14:05:53.763Z,26.35
2023-02-22T14:08:44.045Z,24.60
2023-02-22T14:11:52.166Z,25.27
2023-02-22T14:14:20.639Z,26.70
2023-02-22T14:17:30.992Z,23.88
2023-02-22T14:20:14.792Z,23.35
2023-02-22T14:22:44.424Z,25.45
2023-02-22T14:25:33.885Z,26.95
2023-02-22T14:28:03.398Z,24.58
2023-02-22T14:30:33.966Z,26.00
2023-02-22T14:33:02.968Z,24.88
2023-02-22T14:35:49.368Z,28.77
2023-02-22T14:38:21.630Z,25.98
2023-02-22T14:40:52.661Z,28.55
2023-02-22T14:43:24.862Z,29.80
2023-02-22T14:45:56.083Z,26.35
2023-02-22T14:48:37.402Z,27.02
2023-02-22T14:51:21.376Z,28.83
2023-02-22T14:53:54.950Z,28.55
2023-02-22T14:56:26.636Z,29.63
2023-02-22T14:58:59.641Z,28.98
2023-02-22T15:01:47.525Z,30.15
2023-02-22T15:04:22.477Z,29.27
2023-02-22T15:06:52.370Z,30.58
2023-02-22T15:09:27.637Z,30.90
2023-02-22T15:12:13.974Z,30.23
2023-02-22T15:14:44.714Z,29.17
2023-02-22T15:17:19.849Z,26.67
2023-02-22T15:19:49.755Z,26.35
2023-02-22T15:22:24.036Z,25.50
2023-02-22T15:25:00.456Z,27.85
2023-02-22T15:27:29.474Z,25.02
2023-02-22T15:30:04.756Z,26.48
2023-02-22T15:32:36.401Z,25.35
2023-02-22T15:35:27.377Z,26.42
2023-02-22T15:38:06.217Z,26.52
2023-02-22T15:40:36.050Z,25.73
2023-02-22T15:43:08.594Z,24.85
2023-02-22T15:45:43.027Z,24.50
2023-02-22T15:48:12.395Z,27.60
2023-02-22T15:50:40.485Z,27.55
2023-02-22T15:53:26.475Z,24.35
2023-02-22T15:55:58.954Z,27.20
2023-02-22T15:58:30.112Z,27.25
2023-02-22T16:01:02.769Z,25.90
2023-02-22T16:06:12.565Z,25.20
2023-02-22T16:08:54.771Z,26.85
2023-02-22T16:11:30.146Z,23.67
2023-02-22T16:14:02.016Z,23.52
2023-02-22T16:16:33.264Z,26.38
2023-02-22T16:19:38.043Z,25.70
2023-02-22T16:22:13.750Z,25.00
2023-02-22T16:24:43.274Z,25.08
2023-02-22T16:27:20.070Z,25.00
2023-02-22T16:30:18.733Z,23.42
2023-02-22T16:35:19.622Z,26.95
2023-02-22T16:37:49.790Z,25.05
2023-02-22T16:40:24.790Z,23.58
2023-02-22T16:42:53.010Z,23.10
2023-02-22T16:45:22.213Z,24.60
2023-02-22T16:47:52.670Z,24.35
2023-02-22T16:50:21.868Z,24.73
2023-02-22T16:52:49.989Z,26.98
2023-02-22T16:55:20.554Z,29.77
2023-02-22T16:57:51.321Z,26.13
2023-02-22T17:00:31.070Z,24.05
2023-02-22T17:03:02.544Z,26.50
2023-02-22T17:05:31.421Z,25.15
2023-02-22T17:07:59.490Z,27.90
2023-02-22T17:10:27.927Z,24.52
2023-02-22T17:12:57.736Z,28.70
2023-02-22T17:15:27.641Z,25.38
2023-02-22T17:17:57.628Z,23.13
2023-02-22T17:20:30.226Z,24.55
2023-02-22T17:22:59.362Z,23.33
2023-02-22T17:25:30.898Z,24.08
2023-02-22T17:28:01.374Z,22.70
2023-02-22T17:30:31.370Z,27.08
2023-02-22T17:33:03.656Z,27.52
2023-02-22T17:35:36.319Z,29.20
2023-02-22T17:38:06.305Z,27.95
2023-02-22T17:40:35.210Z,28.60
2023-02-22T17:43:08.086Z,26.38
2023-02-22T17:45:39.268Z,25.40
2023-02-22T17:48:08.843Z,26.00
2023-02-22T17:50:38.155Z,29.83
2023-02-22T17:53:10.934Z,33.17
2023-02-22T17:55:40.678Z,29.33
2023-02-22T17:58:14.825Z,29.33
2023-02-22T18:00:48.412Z,30.25
2023-02-22T18:03:21.595Z,29.55
2023-02-22T18:05:51.499Z,29.52
2023-02-22T18:08:21.435Z,28.60
2023-02-22T18:10:52.688Z,30.02
2023-02-22T18:13:22.827Z,32.22
2023-02-22T18:15:50.972Z,30.40
2023-02-22T18:18:19.352Z,32.53
2023-02-22T18:20:51.500Z,32.55
2023-02-22T18:23:22.395Z,32.92
2023-02-22T18:26:09.190Z,29.95
2023-02-22T18:28:40.292Z,30.17
2023-02-22T18:31:09.594Z,33.25
2023-02-22T18:33:37.781Z,32.22
2023-02-22T18:36:06.562Z,37.58
2023-02-22T18:38:34.610Z,34.58
2023-02-22T18:41:04.417Z,35.05
2023-02-22T18:43:34.401Z,34.67
2023-02-22T18:46:11.935Z,37.95
2023-02-22T18:48:40.915Z,37.03
2023-02-22T18:51:11.356Z,38.50
2023-02-22T18:56:17.910Z,38.13
2023-02-22T18:58:46.294Z,38.13
2023-02-22T19:01:19.571Z,37.28
2023-02-22T19:03:48.151Z,42.22
2023-02-22T19:06:18.219Z,44.13
2023-02-22T19:08:50.691Z,40.45
2023-02-22T19:11:21.842Z,44.83
2023-02-22T19:13:51.462Z,44.60
2023-02-22T19:16:22.928Z,48.60
2023-02-22T19:18:52.803Z,55.72
2023-02-22T19:21:21.862Z,46.58
2023-02-22T19:23:50.332Z,53.97
2023-02-22T19:26:24.102Z,52.95
2023-02-22T19:28:53.317Z,58.58
2023-02-22T19:31:29.663Z,58.45
2023-02-22T19:34:02.519Z,56.92
2023-02-22T19:36:30.672Z,54.17
2023-02-22T19:39:01.670Z,61.20
2023-02-22T19:41:30.806Z,55.78
2023-02-22T19:43:59.607Z,59.33
2023-02-22T19:46:29.531Z,60.75
2023-02-22T19:48:57.778Z,64.95
2023-02-22T19:51:27.954Z,61.53
2023-02-22T19:53:59.187Z,63.78
2023-02-22T19:56:28.473Z,64.57
2023-02-22T19:58:58.772Z,59.50
2023-02-22T20:01:30.358Z,63.35
2023-02-22T20:04:00.298Z,65.22
2023-02-22T20:09:03.700Z,61.65
2023-02-22T20:11:31.983Z,60.88
2023-02-22T20:14:01.991Z,61.63
2023-02-22T20:16:31.502Z,64.38
2023-02-22T20:18:59.997Z,69.47
2023-02-22T20:21:31.232Z,61.00
2023-02-22T20:23:59.406Z,65.07
2023-02-22T20:26:29.436Z,64.82
2023-02-22T20:28:58.253Z,66.53
2023-02-22T20:31:29.658Z,68.70
2023-02-22T20:34:01.038Z,65.95
2023-02-22T20:36:34.820Z,66.03
2023-02-22T20:39:03.203Z,63.47
2023-02-22T20:41:35.352Z,65.53
2023-02-22T20:44:06.975Z,71.72
2023-02-22T20:46:36.791Z,67.57
2023-02-22T20:49:11.203Z,66.67
2023-02-22T20:51:40.556Z,72.00
2023-02-22T20:54:11.707Z,71.45
2023-02-22T20:56:41.910Z,70.55
2023-02-22T20:59:13.022Z,75.60
2023-02-22T21:01:41.260Z,78.40
2023-02-22T21:04:12.087Z,78.57
2023-02-22T21:06:41.627Z,74.50
2023-02-22T21:09:14.205Z,78.93
2023-02-22T21:11:46.661Z,77.90
2023-02-22T21:14:19.746Z,75.18
2023-02-22T21:16:52.430Z,81.05
2023-02-22T21:19:26.544Z,74.68
2023-02-22T21:21:56.050Z,74.45
2023-02-22T21:24:25.334Z,80.32
2023-02-22T21:26:58.687Z,74.32
2023-02-22T21:29:27.652Z,82.47
2023-02-22T21:31:55.950Z,86.05
2023-02-22T21:34:26.244Z,80.75
2023-02-22T21:36:54.546Z,85.38
2023-02-22T21:39:22.878Z,83.30
2023-02-22T21:41:53.245Z,82.13
2023-02-22T21:44:22.141Z,79.35
2023-02-22T21:46:50.142Z,84.28
2023-02-22T21:49:18.826Z,81.55
2023-02-22T21:51:48.228Z,85.65
2023-02-22T21:54:16.928Z,83.82
2023-02-22T21:56:45.065Z,75.50
2023-02-22T21:59:14.948Z,87.57
2023-02-22T22:01:47.163Z,80.65
2023-02-22T22:04:18.940Z,89.10
2023-02-22T22:06:50.918Z,88.80
2023-02-22T22:09:23.539Z,86.82
2023-02-22T22:14:24.188Z,84.20
2023-02-22T22:16:54.767Z,82.70
2023-02-22T22:19:23.013Z,85.50
2023-02-22T22:21:55.515Z,84.97
2023-02-22T22:24:24.151Z,92.32
2023-02-22T22:26:55.456Z,87.18
2023-02-22T22:29:24.472Z,90.43
2023-02-22T22:31:53.268Z,82.15
2023-02-22T22:34:24.334Z,86.20
2023-02-22T22:36:58.123Z,85.07
2023-02-22T22:39:26.946Z,85.47
2023-02-22T22:41:57.765Z,89.97
2023-02-22T22:44:32.653Z,86.85
2023-02-22T22:47:01.061Z,82.95
2023-02-22T22:49:33.575Z,86.55
2023-02-22T22:52:03.002Z,81.15
2023-02-22T22:54:31.042Z,83.88
2023-02-22T22:56:59.058Z,84.95
2023-02-22T22:59:27.813Z,86.43
2023-02-22T23:01:56.736Z,87.32
2023-02-22T23:04:25.503Z,89.13
2023-02-22T23:06:55.622Z,84.22
2023-02-22T23:09:27.003Z,83.45
2023-02-22T23:11:56.816Z,79.03
2023-02-22T23:14:26.985Z,83.10
2023-02-22T23:16:59.859Z,85.53
2023-02-22T23:19:27.999Z,89.47
2023-02-22T23:21:56.153Z,85.85
2023-02-22T23:24:27.548Z,82.30
2023-02-22T23:27:00.308Z,81.90
2023-02-22T23:31:58.759Z,86.60
2023-02-22T23:34:29.050Z,82.25
2023-02-22T23:36:57.248Z,94.95
2023-02-22T23:39:27.342Z,88.88
2023-02-22T23:41:59.229Z,82.65
2023-02-22T23:44:28.079Z,88.75
2023-02-22T23:46:56.446Z,88.75
2023-02-22T23:49:26.495Z,85.18
2023-02-22T23:51:55.702Z,91.43
2023-02-22T23:54:24.832Z,87.60
2023-02-22T23:56:57.260Z,80.85
2023-02-22T23:59:26.933Z,87.38
